Terminal Aerodrome Forecast
Issued by NWS San Angelo, TX

Home | Current Version | Previous Version | Text Only | Print | Product List | Glossary On
Versions: 1 2 3 4 5 6 7 8 9 10 11 12 13 14 15 16 17 18 19 20
000
FTUS44 KSJT 280500
TAFABI
TAF
KABI 280520Z 2806/0106 06008KT 2SM -FZDZ BR OVC005
     FM280900 10010KT 2SM -FZDZ BR OVC002
     FM281500 12010KT 5SM -FZDZ BR OVC006
     FM281900 14010KT P6SM OVC012=

USA.gov is the U.S. government's official web portal to all federal, state and local government web resources and services.